首页
METAR-TAF:

METAR-TAF

机场 :

孟买, 印度

贾特拉帕蒂·希瓦吉国际机场

纬度: 19-07N, 经度: 072-51E, 海拔: 8米

当前天气观测

该预报发布于22分钟前的22:00 UTC
风速3节,风向东转东南
温度 28°C
湿度 74%
气压 1007 hPa
能見度: 3500
轻雾

METAR: VABB 252200Z 12003KT 3500 BR NSC 28/23 Q1007 NOSIG

时间: 03:52 (22:22 UTC)

预报

该预报发布于5小时和22分钟前的17:00 UTC
预报有效从25日的 18点(UTC)到 26日的 24点(UTC)
风速5节,风向西转西北
能見度: 3000
霾, 烟
成为
从 25日的 22点(UTC)到 25日的 24点(UTC)
风速3节,风向多变
成为
从 26日的 04点(UTC)到 26日的 06点(UTC)
风速8节,风向西
能見度: 4000
成为
从 26日的 09点(UTC)到 26日的 11点(UTC)
能見度: 5000
成为
从 26日的 14点(UTC)到 26日的 16点(UTC)
能見度: 4000
霾, 烟
成为
从 26日的 18点(UTC)到 26日的 20点(UTC)
风速3节,风向多变
能見度: 3000
霾, 烟

TAF: VABB 251700Z 2518/2624 29005KT 3000 HZ FU NSC BECMG 2522/2524 VRB03KT BECMG 2604/2606 28008KT 4000 FU BECMG 2609/2611 5000 FU BECMG 2614/2616 4000 HZ FU BECMG 2618/2620 VRB03KT 3000 HZ FU

超过4000个机场的气象观测和天气预报(METAR&TAF报告)。

可查询的气象台以黄色和红色小点在地图上表示。

将鼠标移到小点上方,可查看气象台名称。

然后点击查看天气观测和预报。

如需切换地图:点击带黑十字的绿色按钮放大地图;点击带横线的绿色按钮缩小地图;或者点击绿色箭头查看邻近地区的地图。


METAR-TAF: